Time;durP1;ratioP1;P1;durP2;ratioP2;P2;SDS_P1;SDS_P2;PMS_P1;PMS_P2;Temp;Humidity;BMP_temperature;BMP_pressure;BME280_temperature;BME280_humidity;BME280_pressure;Samples;Min_cycle;Max_cycle;Signal;HPM_P1;HPM_P2
2022/11/05 00:09:30;;;;;;;;;;;;;;;;;;5046365;28;19916;-60
2022/11/05 00:17:25;;;;;;;;;;;;;;;;;;5049654;28;20576;-61
2022/11/05 00:19:51;;;;;;;;;;;;;;;;;;5050095;28;20381;-61
2022/11/05 00:25:15;;;;;;;;;;;;;;;;;;5049944;28;19932;-61
2022/11/05 00:27:41;;;;;;;;;;;;;;;;;;5050038;28;19966;-60
2022/11/05 00:30:08;;;;;;;;;;;;;;;;;;5049719;28;20324;-60
2022/11/05 00:32:33;;;;;;;;;;;;;;;;;;5049696;28;19963;-61
2022/11/05 00:34:59;;;;;;;;;;;;;;;;;;5049563;28;19913;-60
2022/11/05 00:37:25;;;;;;;;;;;;;;;;;;5049858;28;20011;-60
2022/11/05 00:39:51;;;;;;;;;;;;;;;;;;5049740;28;19919;-60
2022/11/05 00:45:02;;;;;;;;;;;;;;;;;;5045210;28;20939;-60
2022/11/05 00:50:12;;;;;;;;;;;;;;;;;;5047678;28;20010;-59
2022/11/05 00:52:54;;;;;;;;;;;;;;;;;;5049392;28;19955;-61
2022/11/05 00:55:20;;;;;;;;;;;;;;;;;;5049727;28;20014;-60
2022/11/05 00:57:45;;;;;;;;;;;;;;;;;;5049405;28;19909;-60
2022/11/05 01:00:11;;;;;;;;;;;;;;;;;;5046808;28;19920;-60
2022/11/05 01:02:37;;;;;;;;;;;;;;;;;;5049531;28;19912;-60
2022/11/05 01:05:03;;;;;;;;;;;;;;;;;;5049485;28;19924;-61
2022/11/05 01:07:29;;;;;;;;;;;;;;;;;;5049345;28;19916;-59
2022/11/05 01:09:55;;;;;;;;;;;;;;;;;;5049363;28;19948;-62
2022/11/05 01:12:21;;;;;;;;;;;;;;;;;;5049301;28;19913;-61
2022/11/05 01:14:46;;;;;;;;;;;;;;;;;;5049223;28;19909;-61
2022/11/05 01:17:12;;;;;;;;;;;;;;;;;;5049684;28;20345;-61
2022/11/05 01:19:38;;;;;;;;;;;;;;;;;;5048950;28;19920;-61
2022/11/05 01:22:04;;;;;;;;;;;;;;;;;;5049504;28;20417;-61
2022/11/05 01:24:30;;;;;;;;;;;;;;;;;;5031150;28;19920;-61
2022/11/05 01:26:56;;;;;;;;;;;;;;;;;;5049160;28;20004;-61
2022/11/05 01:29:22;;;;;;;;;;;;;;;;;;5050286;28;19919;-61
2022/11/05 01:31:48;;;;;;;;;;;;;;;;;;5053431;28;19916;-61
2022/11/05 01:34:14;;;;;;;;;;;;;;;;;;5052759;28;19913;-62
2022/11/05 01:36:39;;;;;;;;;;;;;;;;;;5053301;28;19948;-61
2022/11/05 01:39:05;;;;;;;;;;;;;;;;;;5053019;28;20332;-61
2022/11/05 01:41:31;;;;;;;;;;;;;;;;;;5052522;28;19909;-61
2022/11/05 01:44:00;;;;;;;;;;;;;;;;;;5052465;28;19999;-61
2022/11/05 01:46:26;;;;;;;;;;;;;;;;;;5052677;28;19967;-61
2022/11/05 01:48:52;;;;;;;;;;;;;;;;;;5052858;28;19916;-61
2022/11/05 01:51:18;;;;;;;;;;;;;;;;;;5052921;28;19909;-61
2022/11/05 01:53:44;;;;;;;;;;;;;;;;;;5052473;28;20016;-61
2022/11/05 01:56:10;;;;;;;;;;;;;;;;;;5052040;28;20378;-61
2022/11/05 01:58:35;;;;;;;;;;;;;;;;;;5052464;28;19913;-61
2022/11/05 02:01:03;;;;;;;;;;;;;;;;;;5051763;28;20301;-61
2022/11/05 02:03:29;;;;;;;;;;;;;;;;;;5052358;28;19943;-62
2022/11/05 02:05:55;;;;;;;;;;;;;;;;;;5052281;28;20290;-61
2022/11/05 02:08:21;;;;;;;;;;;;;;;;;;5052503;28;19916;-62
2022/11/05 02:10:47;;;;;;;;;;;;;;;;;;5051530;28;19955;-61
2022/11/05 02:13:13;;;;;;;;;;;;;;;;;;5052120;28;19920;-61
2022/11/05 02:15:39;;;;;;;;;;;;;;;;;;5052189;28;19952;-61
2022/11/05 02:18:05;;;;;;;;;;;;;;;;;;5051779;28;19915;-61
2022/11/05 02:20:31;;;;;;;;;;;;;;;;;;5052747;28;19920;-61
2022/11/05 02:22:56;;;;;;;;;;;;;;;;;;5051804;28;19916;-61
2022/11/05 02:25:22;;;;;;;;;;;;;;;;;;5051704;28;19931;-61
2022/11/05 02:27:48;;;;;;;;;;;;;;;;;;5052353;28;19920;-61
2022/11/05 02:30:14;;;;;;;;;;;;;;;;;;5051912;28;19909;-61
2022/11/05 02:32:40;;;;;;;;;;;;;;;;;;5052225;28;19967;-61
2022/11/05 02:35:06;;;;;;;;;;;;;;;;;;5051769;28;19955;-61
2022/11/05 02:37:32;;;;;;;;;;;;;;;;;;5052399;28;19991;-62
2022/11/05 02:39:58;;;;;;;;;;;;;;;;;;5050795;28;19970;-62
2022/11/05 02:42:23;;;;;;;;;;;;;;;;;;5052264;28;19964;-61
2022/11/05 02:44:49;;;;;;;;;;;;;;;;;;5051585;28;19923;-61
2022/11/05 02:47:15;;;;;;;;;;;;;;;;;;5051693;28;20280;-61
2022/11/05 02:49:41;;;;;;;;;;;;;;;;;;5051650;28;19916;-61
2022/11/05 02:52:07;;;;;;;;;;;;;;;;;;5051656;28;20483;-61
2022/11/05 02:54:33;;;;;;;;;;;;;;;;;;5051047;28;19916;-61
2022/11/05 02:56:59;;;;;;;;;;;;;;;;;;5051469;28;19912;-61
2022/11/05 02:59:25;;;;;;;;;;;;;;;;;;5051639;28;19909;-61
2022/11/05 03:01:51;;;;;;;;;;;;;;;;;;5051663;28;20004;-61
2022/11/05 03:04:16;;;;;;;;;;;;;;;;;;5051133;28;20385;-61
2022/11/05 03:06:42;;;;;;;;;;;;;;;;;;5051525;28;20393;-61
2022/11/05 03:09:08;;;;;;;;;;;;;;;;;;5051602;28;19913;-61
2022/11/05 03:11:34;;;;;;;;;;;;;;;;;;5051631;28;20353;-61
2022/11/05 03:14:00;;;;;;;;;;;;;;;;;;5051195;28;19956;-61
2022/11/05 03:16:26;;;;;;;;;;;;;;;;;;5051175;28;19912;-61
2022/11/05 03:18:52;;;;;;;;;;;;;;;;;;5051473;28;19912;-61
2022/11/05 03:21:18;;;;;;;;;;;;;;;;;;5051137;28;19959;-60
2022/11/05 03:23:44;;;;;;;;;;;;;;;;;;5050433;28;19920;-61
2022/11/05 03:26:10;;;;;;;;;;;;;;;;;;5050789;28;20453;-61
2022/11/05 03:28:36;;;;;;;;;;;;;;;;;;5051283;28;19915;-61
2022/11/05 03:31:01;;;;;;;;;;;;;;;;;;5050657;28;19916;-61
2022/11/05 03:33:27;;;;;;;;;;;;;;;;;;5050623;28;20385;-61
2022/11/05 03:35:53;;;;;;;;;;;;;;;;;;5050733;28;19917;-61
2022/11/05 03:38:19;;;;;;;;;;;;;;;;;;5050811;28;19909;-61
2022/11/05 03:40:45;;;;;;;;;;;;;;;;;;5050664;28;20289;-61
2022/11/05 03:43:11;;;;;;;;;;;;;;;;;;5050914;28;19984;-61
2022/11/05 03:45:37;;;;;;;;;;;;;;;;;;5050113;28;19916;-61
2022/11/05 03:48:03;;;;;;;;;;;;;;;;;;5050214;28;19956;-61
2022/11/05 03:50:31;;;;;;;;;;;;;;;;;;5050118;28;20004;-61
2022/11/05 03:52:58;;;;;;;;;;;;;;;;;;5049579;28;19920;-61
2022/11/05 03:55:24;;;;;;;;;;;;;;;;;;5050476;28;20385;-61
2022/11/05 03:57:49;;;;;;;;;;;;;;;;;;5050657;28;20381;-61
2022/11/05 04:00:15;;;;;;;;;;;;;;;;;;5050079;28;19917;-61
2022/11/05 04:02:41;;;;;;;;;;;;;;;;;;5050002;28;19966;-61
2022/11/05 04:05:07;;;;;;;;;;;;;;;;;;5050413;28;19927;-61
2022/11/05 04:18:33;;;;;;;;;;;;;;;;;;5049941;28;19958;-62
2022/11/05 04:26:28;;;;;;;;;;;;;;;;;;5049531;28;19975;-61
2022/11/05 04:31:38;;;;;;;;;;;;;;;;;;5049740;28;20008;-61
2022/11/05 04:34:04;;;;;;;;;;;;;;;;;;5049668;28;19995;-61
2022/11/05 04:36:30;;;;;;;;;;;;;;;;;;5049606;28;19916;-61
2022/11/05 04:38:56;;;;;;;;;;;;;;;;;;5049693;28;20439;-60
2022/11/05 04:41:22;;;;;;;;;;;;;;;;;;5049641;28;19912;-61
2022/11/05 04:43:47;;;;;;;;;;;;;;;;;;5049297;28;20623;-61
2022/11/05 04:46:13;;;;;;;;;;;;;;;;;;5050185;28;19928;-61
2022/11/05 04:48:39;;;;;;;;;;;;;;;;;;5049918;28;19936;-61
2022/11/05 04:51:05;;;;;;;;;;;;;;;;;;5048851;28;19916;-62
2022/11/05 04:53:31;;;;;;;;;;;;;;;;;;5048933;28;20332;-60
2022/11/05 04:55:57;;;;;;;;;;;;;;;;;;5049608;28;19919;-61
2022/11/05 04:58:23;;;;;;;;;;;;;;;;;;5049593;28;19909;-61
2022/11/05 05:00:49;;;;;;;;;;;;;;;;;;5049370;28;19966;-61
2022/11/05 05:03:15;;;;;;;;;;;;;;;;;;5049017;28;19909;-61
2022/11/05 05:05:41;;;;;;;;;;;;;;;;;;5035307;28;19925;-61
2022/11/05 05:08:06;;;;;;;;;;;;;;;;;;5054108;28;19908;-61
2022/11/05 05:10:32;;;;;;;;;;;;;;;;;;5053413;28;19909;-61
2022/11/05 05:12:58;;;;;;;;;;;;;;;;;;5053169;28;19920;-61
2022/11/05 05:15:24;;;;;;;;;;;;;;;;;;5053632;28;19912;-61
2022/11/05 05:17:50;;;;;;;;;;;;;;;;;;5053339;28;19955;-60
2022/11/05 05:23:01;;;;;;;;;;;;;;;;;;5053081;28;19919;-61
2022/11/05 05:25:26;;;;;;;;;;;;;;;;;;5052617;28;19925;-62
2022/11/05 05:27:52;;;;;;;;;;;;;;;;;;5048533;28;19954;-61
2022/11/05 05:30:18;;;;;;;;;;;;;;;;;;5053065;28;19913;-61
2022/11/05 05:32:44;;;;;;;;;;;;;;;;;;5053188;28;19915;-62
2022/11/05 05:35:10;;;;;;;;;;;;;;;;;;5052480;28;20696;-62
2022/11/05 05:37:37;;;;;;;;;;;;;;;;;;5053644;28;19913;-61
2022/11/05 05:40:03;;;;;;;;;;;;;;;;;;5052951;28;20219;-59
2022/11/05 05:42:29;;;;;;;;;;;;;;;;;;5052740;28;19908;-61
2022/11/05 05:44:55;;;;;;;;;;;;;;;;;;5053055;28;19923;-60
2022/11/05 05:47:21;;;;;;;;;;;;;;;;;;5052813;28;19912;-61
2022/11/05 05:49:46;;;;;;;;;;;;;;;;;;5051917;28;20007;-61
2022/11/05 05:52:12;;;;;;;;;;;;;;;;;;5034498;28;19912;-61
2022/11/05 05:54:38;;;;;;;;;;;;;;;;;;5052474;28;20016;-61
2022/11/05 05:57:04;;;;;;;;;;;;;;;;;;5052612;28;19909;-61
2022/11/05 05:59:30;;;;;;;;;;;;;;;;;;5052812;28;19908;-61
2022/11/05 06:01:56;;;;;;;;;;;;;;;;;;5051764;28;20717;-58
2022/11/05 06:04:22;;;;;;;;;;;;;;;;;;5052373;28;19947;-61
2022/11/05 06:06:48;;;;;;;;;;;;;;;;;;5052495;28;19912;-61
2022/11/05 06:09:14;;;;;;;;;;;;;;;;;;5052357;28;19967;-61
2022/11/05 06:11:40;;;;;;;;;;;;;;;;;;5052666;28;19962;-62
2022/11/05 06:14:06;;;;;;;;;;;;;;;;;;5052215;28;20392;-61
2022/11/05 06:16:34;;;;;;;;;;;;;;;;;;5048816;28;20435;-61
2022/11/05 06:19:00;;;;;;;;;;;;;;;;;;5052765;28;19909;-61
2022/11/05 06:21:26;;;;;;;;;;;;;;;;;;5052335;28;20370;-61
2022/11/05 06:23:52;;;;;;;;;;;;;;;;;;5051986;28;19952;-61
2022/11/05 06:26:18;;;;;;;;;;;;;;;;;;5052283;28;19940;-61
2022/11/05 06:28:44;;;;;;;;;;;;;;;;;;5034203;28;19915;-61
2022/11/05 06:31:10;;;;;;;;;;;;;;;;;;5051826;28;20007;-61
2022/11/05 06:33:35;;;;;;;;;;;;;;;;;;5051702;28;19909;-61
2022/11/05 06:36:01;;;;;;;;;;;;;;;;;;5051812;28;19909;-61
2022/11/05 06:38:28;;;;;;;;;;;;;;;;;;5051682;28;20628;-61
2022/11/05 06:40:54;;;;;;;;;;;;;;;;;;5052343;28;20023;-61
2022/11/05 06:43:20;;;;;;;;;;;;;;;;;;5051520;28;20000;-61
2022/11/05 06:45:45;;;;;;;;;;;;;;;;;;5051399;28;20328;-61
2022/11/05 06:48:11;;;;;;;;;;;;;;;;;;5051778;28;20031;-62
2022/11/05 06:50:37;;;;;;;;;;;;;;;;;;5052099;28;20664;-61
2022/11/05 06:53:03;;;;;;;;;;;;;;;;;;5051959;28;19917;-61
2022/11/05 06:55:29;;;;;;;;;;;;;;;;;;5051523;28;19919;-61
2022/11/05 06:57:55;;;;;;;;;;;;;;;;;;5051790;28;20400;-61
2022/11/05 07:00:21;;;;;;;;;;;;;;;;;;5051318;28;19908;-61
2022/11/05 07:02:47;;;;;;;;;;;;;;;;;;5051070;28;19920;-61
2022/11/05 07:05:13;;;;;;;;;;;;;;;;;;5051286;28;19917;-61
2022/11/05 07:07:38;;;;;;;;;;;;;;;;;;5051709;28;19920;-61
2022/11/05 07:10:04;;;;;;;;;;;;;;;;;;5051283;28;19915;-61
2022/11/05 07:12:30;;;;;;;;;;;;;;;;;;5050890;28;20393;-61
2022/11/05 07:14:56;;;;;;;;;;;;;;;;;;5050416;28;19966;-61
2022/11/05 07:17:22;;;;;;;;;;;;;;;;;;5051048;28;20670;-61
2022/11/05 07:19:48;;;;;;;;;;;;;;;;;;5047031;28;19924;-61
2022/11/05 07:22:14;;;;;;;;;;;;;;;;;;5043659;28;20339;-70
2022/11/05 07:24:40;;;;;;;;;;;;;;;;;;5050185;28;19996;-72
2022/11/05 07:27:05;;;;;;;;;;;;;;;;;;5049540;28;19921;-72
2022/11/05 07:29:31;;;;;;;;;;;;;;;;;;5049531;28;20407;-71
2022/11/05 07:31:57;;;;;;;;;;;;;;;;;;5050543;28;19908;-72
2022/11/05 07:34:23;;;;;;;;;;;;;;;;;;5046180;28;19921;-72
2022/11/05 07:36:49;;;;;;;;;;;;;;;;;;5043288;28;19913;-71
2022/11/05 07:39:15;;;;;;;;;;;;;;;;;;5050153;28;20003;-72
2022/11/05 07:41:41;;;;;;;;;;;;;;;;;;5049087;28;19916;-72
2022/11/05 07:44:07;;;;;;;;;;;;;;;;;;5049686;28;19928;-72
2022/11/05 07:46:32;;;;;;;;;;;;;;;;;;5050259;28;19912;-72
2022/11/05 07:48:58;;;;;;;;;;;;;;;;;;5032198;28;19986;-80
2022/11/05 07:51:24;;;;;;;;;;;;;;;;;;5041361;28;19936;-79
2022/11/05 07:53:50;;;;;;;;;;;;;;;;;;5045153;28;19954;-79
2022/11/05 07:56:16;;;;;;;;;;;;;;;;;;5044437;28;19916;-78
2022/11/05 07:58:42;;;;;;;;;;;;;;;;;;5049091;28;19936;-78
2022/11/05 08:01:08;;;;;;;;;;;;;;;;;;5049180;28;19916;-79
2022/11/05 08:03:34;;;;;;;;;;;;;;;;;;5049137;28;20320;-79
2022/11/05 08:06:00;;;;;;;;;;;;;;;;;;5048643;28;19924;-79
2022/11/05 08:08:26;;;;;;;;;;;;;;;;;;5029501;28;20468;-81
2022/11/05 08:10:52;;;;;;;;;;;;;;;;;;5049606;28;19919;-78
2022/11/05 08:13:18;;;;;;;;;;;;;;;;;;5048356;28;20637;-77
2022/11/05 08:15:44;;;;;;;;;;;;;;;;;;5048832;28;20011;-77
2022/11/05 08:18:09;;;;;;;;;;;;;;;;;;5048317;28;20411;-78
2022/11/05 08:20:36;;;;;;;;;;;;;;;;;;5048767;28;19924;-78
2022/11/05 08:23:01;;;;;;;;;;;;;;;;;;5025959;28;19980;-77
2022/11/05 08:25:27;;;;;;;;;;;;;;;;;;5047938;28;19996;-79
2022/11/05 08:27:53;;;;;;;;;;;;;;;;;;5048491;28;19917;-77
2022/11/05 08:30:19;;;;;;;;;;;;;;;;;;5048352;28;19970;-78
2022/11/05 08:32:45;;;;;;;;;;;;;;;;;;5041692;28;20315;-76
2022/11/05 08:35:11;;;;;;;;;;;;;;;;;;5048273;28;19917;-79
2022/11/05 08:37:37;;;;;;;;;;;;;;;;;;5047854;28;20475;-79
2022/11/05 08:40:03;;;;;;;;;;;;;;;;;;5048404;28;19932;-74
2022/11/05 08:42:28;;;;;;;;;;;;;;;;;;5047863;28;19970;-78
2022/11/05 08:44:54;;;;;;;;;;;;;;;;;;5048076;28;19963;-78
2022/11/05 08:47:20;;;;;;;;;;;;;;;;;;5048253;28;19956;-78
2022/11/05 08:49:46;;;;;;;;;;;;;;;;;;5048153;28;19927;-76
2022/11/05 08:52:12;;;;;;;;;;;;;;;;;;5048558;28;19963;-77
2022/11/05 08:54:38;;;;;;;;;;;;;;;;;;5048368;28;19935;-77
2022/11/05 08:57:04;;;;;;;;;;;;;;;;;;5047649;28;19917;-77
2022/11/05 08:59:30;;;;;;;;;;;;;;;;;;5049023;28;19917;-78
2022/11/05 09:01:56;;;;;;;;;;;;;;;;;;5048117;28;19980;-77
2022/11/05 09:04:22;;;;;;;;;;;;;;;;;;5048397;28;19936;-78
2022/11/05 09:06:47;;;;;;;;;;;;;;;;;;5048073;28;19917;-79
2022/11/05 09:09:13;;;;;;;;;;;;;;;;;;5047359;28;19913;-79
2022/11/05 09:11:39;;;;;;;;;;;;;;;;;;5046871;28;19917;-78
2022/11/05 09:14:05;;;;;;;;;;;;;;;;;;5047903;28;19913;-76
2022/11/05 09:16:33;;;;;;;;;;;;;;;;;;5045986;28;20298;-78
2022/11/05 09:18:59;;;;;;;;;;;;;;;;;;5048284;28;19924;-76
2022/11/05 09:21:25;;;;;;;;;;;;;;;;;;5047243;28;19921;-77
2022/11/05 09:23:50;;;;;;;;;;;;;;;;;;5048138;28;19917;-79
2022/11/05 09:26:16;;;;;;;;;;;;;;;;;;5047680;28;19968;-78
2022/11/05 09:28:42;;;;;;;;;;;;;;;;;;5048283;28;19913;-78
2022/11/05 09:31:08;;;;;;;;;;;;;;;;;;5048544;28;19924;-78
2022/11/05 09:33:34;;;;;;;;;;;;;;;;;;5048442;28;19966;-78
2022/11/05 09:36:00;;;;;;;;;;;;;;;;;;5047856;28;19920;-78
2022/11/05 09:38:26;;;;;;;;;;;;;;;;;;5047545;28;20023;-79
2022/11/05 09:40:52;;;;;;;;;;;;;;;;;;5047960;28;19924;-78
2022/11/05 09:43:18;;;;;;;;;;;;;;;;;;5046098;28;19913;-78
2022/11/05 09:45:44;;;;;;;;;;;;;;;;;;5045859;28;19991;-78
2022/11/05 09:48:10;;;;;;;;;;;;;;;;;;5048086;28;19956;-78
2022/11/05 09:50:36;;;;;;;;;;;;;;;;;;5049770;28;19913;-78
2022/11/05 09:53:02;;;;;;;;;;;;;;;;;;5052079;28;19916;-78
2022/11/05 09:55:27;;;;;;;;;;;;;;;;;;5051048;28;20000;-78
2022/11/05 09:57:53;;;;;;;;;;;;;;;;;;5051715;28;19963;-79
2022/11/05 10:00:19;;;;;;;;;;;;;;;;;;5051019;28;20464;-78
2022/11/05 10:02:45;;;;;;;;;;;;;;;;;;5051242;28;19923;-80
2022/11/05 10:05:12;;;;;;;;;;;;;;;;;;5051437;28;20907;-80
2022/11/05 10:07:37;;;;;;;;;;;;;;;;;;5051540;28;20384;-80
2022/11/05 10:10:03;;;;;;;;;;;;;;;;;;5051160;28;19924;-79
2022/11/05 10:12:29;;;;;;;;;;;;;;;;;;5051593;28;20011;-80
2022/11/05 10:14:55;;;;;;;;;;;;;;;;;;5033553;28;19912;-79
2022/11/05 10:17:23;;;;;;;;;;;;;;;;;;5051126;28;19916;-79
2022/11/05 10:19:49;;;;;;;;;;;;;;;;;;5051429;28;19916;-80
2022/11/05 10:22:18;;;;;;;;;;;;;;;;;;5049961;28;20370;-79
2022/11/05 10:24:45;;;;;;;;;;;;;;;;;;5051108;28;20030;-74
2022/11/05 10:27:11;;;;;;;;;;;;;;;;;;5050537;28;20250;-79
2022/11/05 10:29:36;;;;;;;;;;;;;;;;;;5051161;28;20381;-79
2022/11/05 10:32:04;;;;;;;;;;;;;;;;;;5047065;28;19912;-76
2022/11/05 10:34:30;;;;;;;;;;;;;;;;;;5051069;28;19917;-76
2022/11/05 10:36:56;;;;;;;;;;;;;;;;;;5050866;28;19936;-78
2022/11/05 10:39:23;;;;;;;;;;;;;;;;;;5048553;28;19917;-75
2022/11/05 10:41:49;;;;;;;;;;;;;;;;;;5048117;28;20377;-77
2022/11/05 10:44:15;;;;;;;;;;;;;;;;;;5048712;28;19913;-77
2022/11/05 10:46:40;;;;;;;;;;;;;;;;;;5045876;28;20283;-77
2022/11/05 10:49:06;;;;;;;;;;;;;;;;;;5048614;28;20008;-78
2022/11/05 10:51:32;;;;;;;;;;;;;;;;;;5046182;28;19917;-78
2022/11/05 10:53:58;;;;;;;;;;;;;;;;;;5048196;28;20000;-78
2022/11/05 10:56:24;;;;;;;;;;;;;;;;;;5047916;28;20517;-78
2022/11/05 10:58:50;;;;;;;;;;;;;;;;;;5054527;28;19912;-76
2022/11/05 11:01:16;;;;;;;;;;;;;;;;;;5051586;28;19924;-78
2022/11/05 11:03:42;;;;;;;;;;;;;;;;;;5050553;28;19916;-81
2022/11/05 11:06:08;;;;;;;;;;;;;;;;;;5049790;28;20373;-78
2022/11/05 11:08:34;;;;;;;;;;;;;;;;;;5050684;28;19917;-79
2022/11/05 11:11:00;;;;;;;;;;;;;;;;;;5050483;28;19956;-78
2022/11/05 11:13:26;;;;;;;;;;;;;;;;;;5049739;28;19959;-79
2022/11/05 11:15:51;;;;;;;;;;;;;;;;;;5050444;28;19938;-79
2022/11/05 11:18:17;;;;;;;;;;;;;;;;;;5049854;28;20020;-78
2022/11/05 11:20:43;;;;;;;;;;;;;;;;;;5049805;28;19919;-79
2022/11/05 11:23:10;;;;;;;;;;;;;;;;;;5049136;28;19923;-76
2022/11/05 11:25:36;;;;;;;;;;;;;;;;;;5049157;28;20384;-77
2022/11/05 11:28:03;;;;;;;;;;;;;;;;;;5049757;28;19913;-77
2022/11/05 11:30:28;;;;;;;;;;;;;;;;;;5048430;28;19970;-76
2022/11/05 11:32:55;;;;;;;;;;;;;;;;;;5046423;28;19921;-78
2022/11/05 11:35:21;;;;;;;;;;;;;;;;;;5049847;28;20361;-76
2022/11/05 11:37:47;;;;;;;;;;;;;;;;;;5046700;28;19917;-78
2022/11/05 11:40:13;;;;;;;;;;;;;;;;;;5049791;28;19919;-77
2022/11/05 11:42:38;;;;;;;;;;;;;;;;;;5046086;28;20000;-76
2022/11/05 11:45:04;;;;;;;;;;;;;;;;;;5049550;28;19925;-77
2022/11/05 11:47:30;;;;;;;;;;;;;;;;;;5049214;28;19917;-75
2022/11/05 11:49:56;;;;;;;;;;;;;;;;;;5049449;28;20069;-74
2022/11/05 11:52:22;;;;;;;;;;;;;;;;;;5045925;28;19920;-77
2022/11/05 11:54:48;;;;;;;;;;;;;;;;;;5041569;28;19913;-76
2022/11/05 11:57:14;;;;;;;;;;;;;;;;;;5047978;28;20004;-76
2022/11/05 11:59:40;;;;;;;;;;;;;;;;;;5049443;28;20015;-77
2022/11/05 12:02:05;;;;;;;;;;;;;;;;;;5048945;28;20389;-76
2022/11/05 12:04:31;;;;;;;;;;;;;;;;;;5049308;28;19920;-76
2022/11/05 12:06:57;;;;;;;;;;;;;;;;;;5049448;28;19913;-77
2022/11/05 12:09:23;;;;;;;;;;;;;;;;;;5030830;28;19913;-76
2022/11/05 12:11:49;;;;;;;;;;;;;;;;;;5049091;28;19912;-77
2022/11/05 12:14:15;;;;;;;;;;;;;;;;;;5048006;28;19976;-77
2022/11/05 12:16:41;;;;;;;;;;;;;;;;;;5048687;28;19998;-76
2022/11/05 12:19:07;;;;;;;;;;;;;;;;;;5048045;28;19924;-80
2022/11/05 12:21:32;;;;;;;;;;;;;;;;;;5048883;28;19963;-79
2022/11/05 12:23:58;;;;;;;;;;;;;;;;;;5049258;28;19959;-77
2022/11/05 12:26:24;;;;;;;;;;;;;;;;;;5048231;28;19925;-77
2022/11/05 12:28:50;;;;;;;;;;;;;;;;;;5049220;28;19980;-79
2022/11/05 12:31:16;;;;;;;;;;;;;;;;;;5048659;28;19944;-77
2022/11/05 12:33:42;;;;;;;;;;;;;;;;;;5048752;28;20469;-78
2022/11/05 12:36:08;;;;;;;;;;;;;;;;;;5048740;28;19916;-79
2022/11/05 12:38:34;;;;;;;;;;;;;;;;;;5048314;28;19998;-76
2022/11/05 12:41:00;;;;;;;;;;;;;;;;;;5047958;28;19913;-78
2022/11/05 12:43:26;;;;;;;;;;;;;;;;;;5048343;28;19917;-78
2022/11/05 12:45:51;;;;;;;;;;;;;;;;;;5048669;28;19932;-77
2022/11/05 12:48:17;;;;;;;;;;;;;;;;;;5047719;28;19961;-76
2022/11/05 12:50:43;;;;;;;;;;;;;;;;;;5048127;28;19912;-77
2022/11/05 12:53:09;;;;;;;;;;;;;;;;;;5048423;28;20003;-77
2022/11/05 12:55:35;;;;;;;;;;;;;;;;;;5048122;28;19920;-78
2022/11/05 12:58:01;;;;;;;;;;;;;;;;;;5048484;28;19913;-77
2022/11/05 13:00:27;;;;;;;;;;;;;;;;;;5048675;28;21273;-77
2022/11/05 13:02:53;;;;;;;;;;;;;;;;;;5048475;28;19920;-80
2022/11/05 13:05:18;;;;;;;;;;;;;;;;;;5047838;28;19921;-80
2022/11/05 13:07:44;;;;;;;;;;;;;;;;;;5048690;28;19920;-81
2022/11/05 13:10:10;;;;;;;;;;;;;;;;;;5048340;28;19917;-81
2022/11/05 13:12:36;;;;;;;;;;;;;;;;;;5048359;28;19919;-82
2022/11/05 13:15:02;;;;;;;;;;;;;;;;;;5047590;28;19920;-78
2022/11/05 13:17:28;;;;;;;;;;;;;;;;;;5047929;28;19963;-81
2022/11/05 13:19:54;;;;;;;;;;;;;;;;;;5048248;28;19914;-78
2022/11/05 13:22:20;;;;;;;;;;;;;;;;;;5048366;28;20662;-75
2022/11/05 13:24:46;;;;;;;;;;;;;;;;;;5048354;28;19932;-77
2022/11/05 13:27:11;;;;;;;;;;;;;;;;;;5051495;28;19920;-80
2022/11/05 13:29:37;;;;;;;;;;;;;;;;;;5052193;28;19920;-77
2022/11/05 13:32:03;;;;;;;;;;;;;;;;;;5052855;28;20412;-81
2022/11/05 13:34:29;;;;;;;;;;;;;;;;;;5052093;28;19940;-78
2022/11/05 13:39:40;;;;;;;;;;;;;;;;;;5050882;28;19919;-77
2022/11/05 13:42:06;;;;;;;;;;;;;;;;;;5034749;28;19909;-79
2022/11/05 13:44:31;;;;;;;;;;;;;;;;;;5052418;28;20317;-80
2022/11/05 13:46:57;;;;;;;;;;;;;;;;;;5051626;28;20031;-80
2022/11/05 13:49:23;;;;;;;;;;;;;;;;;;5051900;28;19963;-79
2022/11/05 13:51:49;;;;;;;;;;;;;;;;;;5051456;28;19912;-77
2022/11/05 13:54:15;;;;;;;;;;;;;;;;;;5050805;28;20353;-80
2022/11/05 13:56:41;;;;;;;;;;;;;;;;;;5047605;28;19964;-81
2022/11/05 13:59:08;;;;;;;;;;;;;;;;;;5051975;28;20550;-82
2022/11/05 14:01:34;;;;;;;;;;;;;;;;;;5051611;28;19913;-78
2022/11/05 14:04:00;;;;;;;;;;;;;;;;;;5052180;28;20343;-77
2022/11/05 14:06:26;;;;;;;;;;;;;;;;;;5050717;28;19920;-80
2022/11/05 14:08:52;;;;;;;;;;;;;;;;;;5047470;28;19921;-79
2022/11/05 14:11:18;;;;;;;;;;;;;;;;;;5051126;28;19991;-80
2022/11/05 14:13:44;;;;;;;;;;;;;;;;;;5046658;28;19917;-80
2022/11/05 14:16:10;;;;;;;;;;;;;;;;;;5050703;28;20293;-80
2022/11/05 14:18:36;;;;;;;;;;;;;;;;;;5051395;28;19959;-81
2022/11/05 14:21:01;;;;;;;;;;;;;;;;;;5050563;28;20324;-81
2022/11/05 14:23:29;;;;;;;;;;;;;;;;;;5050347;28;19928;-81
2022/11/05 14:25:55;;;;;;;;;;;;;;;;;;5048880;28;20238;-84
2022/11/05 14:28:21;;;;;;;;;;;;;;;;;;5050437;28;19924;-81
2022/11/05 14:30:47;;;;;;;;;;;;;;;;;;5048174;28;19913;-81
2022/11/05 14:33:13;;;;;;;;;;;;;;;;;;5047121;28;19978;-79
2022/11/05 14:35:39;;;;;;;;;;;;;;;;;;5025692;28;19924;-78
2022/11/05 14:38:05;;;;;;;;;;;;;;;;;;5050612;28;20301;-77
2022/11/05 14:40:31;;;;;;;;;;;;;;;;;;5050541;28;19959;-79
2022/11/05 14:42:57;;;;;;;;;;;;;;;;;;5050147;28;19913;-78
2022/11/05 14:45:23;;;;;;;;;;;;;;;;;;5045869;28;19945;-78
2022/11/05 14:47:49;;;;;;;;;;;;;;;;;;5048502;28;20412;-78
2022/11/05 14:50:15;;;;;;;;;;;;;;;;;;5049469;28;19920;-80
2022/11/05 14:52:41;;;;;;;;;;;;;;;;;;5047853;28;19916;-80
2022/11/05 14:55:06;;;;;;;;;;;;;;;;;;5047969;28;19916;-81
2022/11/05 14:57:32;;;;;;;;;;;;;;;;;;5050110;28;20401;-82
2022/11/05 14:59:59;;;;;;;;;;;;;;;;;;5050491;28;20043;-79
2022/11/05 15:02:25;;;;;;;;;;;;;;;;;;5050011;28;19960;-81
2022/11/05 15:04:52;;;;;;;;;;;;;;;;;;5049499;28;19988;-81
2022/11/05 15:07:17;;;;;;;;;;;;;;;;;;5049288;28;19919;-81
2022/11/05 15:09:43;;;;;;;;;;;;;;;;;;5049950;28;19917;-82
2022/11/05 15:12:10;;;;;;;;;;;;;;;;;;5048275;28;20005;-83
2022/11/05 15:14:36;;;;;;;;;;;;;;;;;;5049168;28;19925;-77
2022/11/05 15:17:02;;;;;;;;;;;;;;;;;;5042419;28;19923;-78
2022/11/05 15:19:27;;;;;;;;;;;;;;;;;;5041472;28;19920;-78
2022/11/05 15:21:53;;;;;;;;;;;;;;;;;;5042876;28;19912;-79
2022/11/05 15:24:19;;;;;;;;;;;;;;;;;;5047788;28;19913;-79
2022/11/05 15:26:45;;;;;;;;;;;;;;;;;;5045903;28;20007;-80
2022/11/05 15:29:11;;;;;;;;;;;;;;;;;;5046057;28;20305;-80
2022/11/05 15:31:40;;;;;;;;;;;;;;;;;;5045253;28;19917;-81
2022/11/05 15:34:05;;;;;;;;;;;;;;;;;;5047089;28;20308;-81
2022/11/05 15:36:31;;;;;;;;;;;;;;;;;;5047987;28;19913;-81
2022/11/05 15:38:57;;;;;;;;;;;;;;;;;;5045845;28;19951;-80
2022/11/05 15:41:23;;;;;;;;;;;;;;;;;;5047387;28;20343;-80
2022/11/05 15:43:49;;;;;;;;;;;;;;;;;;5046573;28;19913;-81
2022/11/05 15:46:15;;;;;;;;;;;;;;;;;;5048404;28;20373;-81
2022/11/05 15:48:41;;;;;;;;;;;;;;;;;;5045665;28;19913;-81
2022/11/05 15:51:07;;;;;;;;;;;;;;;;;;5047862;28;19913;-82
2022/11/05 15:53:33;;;;;;;;;;;;;;;;;;5041700;28;19919;-81
2022/11/05 15:55:59;;;;;;;;;;;;;;;;;;5046419;28;19927;-78
2022/11/05 15:58:25;;;;;;;;;;;;;;;;;;5046386;28;19912;-76
2022/11/05 16:00:51;;;;;;;;;;;;;;;;;;5040658;28;20019;-76
2022/11/05 16:03:17;;;;;;;;;;;;;;;;;;5041838;28;19917;-76
2022/11/05 16:05:43;;;;;;;;;;;;;;;;;;5045612;28;19932;-75
2022/11/05 16:08:09;;;;;;;;;;;;;;;;;;5041167;28;19912;-74
2022/11/05 16:10:35;;;;;;;;;;;;;;;;;;5048524;28;20063;-76
2022/11/05 16:13:00;;;;;;;;;;;;;;;;;;5046454;28;20439;-76
2022/11/05 16:15:28;;;;;;;;;;;;;;;;;;5047780;28;19955;-78
2022/11/05 16:17:54;;;;;;;;;;;;;;;;;;5047687;28;20384;-76
2022/11/05 16:20:20;;;;;;;;;;;;;;;;;;5047185;28;19916;-74
2022/11/05 16:22:46;;;;;;;;;;;;;;;;;;5048079;28;19924;-76
2022/11/05 16:25:11;;;;;;;;;;;;;;;;;;5045960;28;20289;-76
2022/11/05 16:27:37;;;;;;;;;;;;;;;;;;5046506;28;19913;-73
2022/11/05 16:30:03;;;;;;;;;;;;;;;;;;5047824;28;20643;-77
2022/11/05 16:32:29;;;;;;;;;;;;;;;;;;5046386;28;19913;-75
2022/11/05 16:34:55;;;;;;;;;;;;;;;;;;5026153;28;19913;-76
2022/11/05 16:37:21;;;;;;;;;;;;;;;;;;5047867;28;19928;-78
2022/11/05 16:39:47;;;;;;;;;;;;;;;;;;5046740;28;19947;-75
2022/11/05 16:42:13;;;;;;;;;;;;;;;;;;5046818;28;20056;-77
2022/11/05 16:44:39;;;;;;;;;;;;;;;;;;5047061;28;19921;-76
2022/11/05 16:47:05;;;;;;;;;;;;;;;;;;5046411;28;20396;-77
2022/11/05 16:49:31;;;;;;;;;;;;;;;;;;5044779;28;19924;-78
2022/11/05 16:51:58;;;;;;;;;;;;;;;;;;5047054;28;19944;-79
2022/11/05 16:54:24;;;;;;;;;;;;;;;;;;5046702;28;19924;-79
2022/11/05 16:56:50;;;;;;;;;;;;;;;;;;5045457;28;19913;-76
2022/11/05 16:59:16;;;;;;;;;;;;;;;;;;5046558;28;19920;-77
2022/11/05 17:01:42;;;;;;;;;;;;;;;;;;5047991;28;19916;-79
2022/11/05 17:04:08;;;;;;;;;;;;;;;;;;5048045;28;20372;-76
2022/11/05 17:06:33;;;;;;;;;;;;;;;;;;5053016;28;19928;-75
2022/11/05 17:08:59;;;;;;;;;;;;;;;;;;5048751;28;19967;-75
2022/11/05 17:11:25;;;;;;;;;;;;;;;;;;5049262;28;19970;-75
2022/11/05 17:13:51;;;;;;;;;;;;;;;;;;5051195;28;19917;-75
2022/11/05 17:16:17;;;;;;;;;;;;;;;;;;5052317;28;20011;-74
2022/11/05 17:18:43;;;;;;;;;;;;;;;;;;5052627;28;19917;-76
2022/11/05 17:21:09;;;;;;;;;;;;;;;;;;5050198;28;19920;-76
2022/11/05 17:23:35;;;;;;;;;;;;;;;;;;5053241;28;19909;-76